Alpha Afovos — SZSJ — position and weather

sailwx.info

Track history (hours):
 
Tides and Currents Weather Stations Pressure Air Temp Water Temp Dewpoint Dewpoint Depression Visibility Wind Speed Wind Dir Waves Ship Positions

Alpha Afovos

Last reported at 2014-Jun-18 01:19 UTC. Time now 2014-Jul-30 21:19 UTC.
Position S 34°56' E 018°19'.
Warning: this ship's position is 42 days out of date.

Length 223 m; draft 7.5 m.

Type: Cargo ship. MMSI: 239802000.

Date/timePositionNaut miles runAvg speedWind from/ knotsBaromVisibWave heightAir tempDewpointWater temp
2014-Jun-18 01:19S 34°56' E 018°19'28 9.7
2014-Jun-17 22:28S 34°57' E 018°52'1010.1
2014-Jun-17 21:29S 34°57' E 019°05'1110.5
2014-Jun-17 20:28S 34°58' E 019°17'1010.3
2014-Jun-17 19:29S 34°58' E 019°30'3510.8
2014-Jun-17 16:12S 34°57' E 020°13'349 8.5
2014-Jun-15 23:14S 33°45' E 027°07'2 3.2
2014-Jun-15 22:28S 33°45' E 027°09'3 2.8
2014-Jun-15 21:32S 33°44' E 027°12'4 2.6
2014-Jun-15 20:03S 33°40' E 027°15'1 1.8
2014-Jun-15 19:31S 33°40' E 027°16'2 1.6
2014-Jun-15 18:06S 33°38' E 027°17'4 1.6
2014-Jun-15 15:32S 33°36' E 027°21'15 5.1
2014-Jun-15 12:31S 33°28' E 027°38'8 7.8
2014-Jun-15 11:32S 33°24' E 027°45'9 9.4
2014-Jun-15 10:33S 33°18' E 027°53'10211.4
2014-Jun-15 01:32S 32°06' E 029°21'7710.8
2014-Jun-14 18:27S 31°11' E 030°23'1213.3
2014-Jun-14 17:33S 31°01' E 030°30'1413.7
2014-Jun-14 16:33S 30°49' E 030°38'1313.4
2014-Jun-14 15:33S 30°37' E 030°44'1212.3
2014-Jun-14 14:33S 30°25' E 030°50'1111.1
2014-Jun-14 13:33S 30°16' E 030°56'1010.2
2014-Jun-14 12:33S 30°07' E 031°02'1111.0
2014-Jun-14 11:33S 29°57' E 031°07'6 5.7
2014-Jun-14 10:33S 29°51' E 031°06'1 1.1
2014-Jun-14 09:33S 29°52' E 031°07'1 0.8
2014-Jun-14 08:33S 29°52' E 031°08'2 2.4
2014-Jun-14 07:33S 29°52' E 031°11'9 8.8
2014-Jun-14 06:33S 29°46' E 031°18'1212.0
2014-Jun-14 05:33S 29°38' E 031°29'1212.1
2014-Jun-14 04:33S 29°30' E 031°39'1212.4
2014-Jun-14 03:33S 29°22' E 031°50'1414.0
2014-Jun-14 02:33S 29°13' E 032°03'1413.9
2014-Jun-14 01:33S 29°04' E 032°15'1413.6
2014-Jun-14 00:33S 28°54' E 032°25'  
Track history (hours):
 
Tides and Currents Weather Stations Pressure Air Temp Water Temp Dewpoint Dewpoint Depression Visibility Wind Speed Wind Dir Waves Ship Positions

Alpha Afovos

Last reported at 2014-Jun-18 01:19 UTC. Time now 2014-Jul-30 21:19 UTC.
Position S 34°56' E 018°19'.
Warning: this ship's position is 42 days out of date.

Length 223 m; draft 7.5 m.

Type: Cargo ship. MMSI: 239802000.

Date/timePositionNaut miles runAvg speedWind from/ knotsBaromVisibWave heightAir tempDewpointWater temp
2014-Jun-18 01:19S 34°56' E 018°19'28 9.7
2014-Jun-17 22:28S 34°57' E 018°52'1010.1
2014-Jun-17 21:29S 34°57' E 019°05'1110.5
2014-Jun-17 20:28S 34°58' E 019°17'1010.3
2014-Jun-17 19:29S 34°58' E 019°30'3510.8
2014-Jun-17 16:12S 34°57' E 020°13'349 8.5
2014-Jun-15 23:14S 33°45' E 027°07'2 3.2
2014-Jun-15 22:28S 33°45' E 027°09'3 2.8
2014-Jun-15 21:32S 33°44' E 027°12'4 2.6
2014-Jun-15 20:03S 33°40' E 027°15'1 1.8
2014-Jun-15 19:31S 33°40' E 027°16'2 1.6
2014-Jun-15 18:06S 33°38' E 027°17'4 1.6
2014-Jun-15 15:32S 33°36' E 027°21'15 5.1
2014-Jun-15 12:31S 33°28' E 027°38'8 7.8
2014-Jun-15 11:32S 33°24' E 027°45'9 9.4
2014-Jun-15 10:33S 33°18' E 027°53'10211.4
2014-Jun-15 01:32S 32°06' E 029°21'7710.8
2014-Jun-14 18:27S 31°11' E 030°23'1213.3
2014-Jun-14 17:33S 31°01' E 030°30'1413.7
2014-Jun-14 16:33S 30°49' E 030°38'1313.4
2014-Jun-14 15:33S 30°37' E 030°44'1212.3
2014-Jun-14 14:33S 30°25' E 030°50'1111.1
2014-Jun-14 13:33S 30°16' E 030°56'1010.2
2014-Jun-14 12:33S 30°07' E 031°02'1111.0
2014-Jun-14 11:33S 29°57' E 031°07'6 5.7
2014-Jun-14 10:33S 29°51' E 031°06'1 1.1
2014-Jun-14 09:33S 29°52' E 031°07'1 0.8
2014-Jun-14 08:33S 29°52' E 031°08'2 2.4
2014-Jun-14 07:33S 29°52' E 031°11'9 8.8
2014-Jun-14 06:33S 29°46' E 031°18'1212.0
2014-Jun-14 05:33S 29°38' E 031°29'1212.1
2014-Jun-14 04:33S 29°30' E 031°39'1212.4
2014-Jun-14 03:33S 29°22' E 031°50'1414.0
2014-Jun-14 02:33S 29°13' E 032°03'1413.9
2014-Jun-14 01:33S 29°04' E 032°15'1413.6
2014-Jun-14 00:33S 28°54' E 032°25'  

Dump ship's entire track history